Time;durP1;ratioP1;P1;durP2;ratioP2;P2;SDS_P1;SDS_P2;PMS_P1;PMS_P2;Temp;Humidity;BMP_temperature;BMP_pressure;BME280_temperature;BME280_humidity;BME280_pressure;Samples;Min_cycle;Max_cycle;Signal;HPM_P1;HPM_P2
2021/09/18 00:01:47;;;;;;;55.30;32.35;;;;;;;15.01;98.39;101798.50;5032803;28;20030;-76
2021/09/18 00:04:13;;;;;;;54.47;31.85;;;;;;;14.96;97.70;101796.66;5034064;28;20364;-77
2021/09/18 00:06:58;;;;;;;53.08;31.67;;;;;;;14.89;97.74;101792.16;5034456;28;20365;-76
2021/09/18 00:09:24;;;;;;;51.63;32.28;;;;;;;14.80;98.03;101798.22;5026722;28;20045;-77
2021/09/18 00:11:49;;;;;;;58.25;32.28;;;;;;;14.72;97.69;101799.84;5029577;28;20037;-77
2021/09/18 00:14:17;;;;;;;53.65;32.88;;;;;;;14.64;97.91;101803.28;5026985;28;20023;-77
2021/09/18 00:16:43;;;;;;;59.05;32.95;;;;;;;14.58;97.80;101791.66;5029968;28;20060;-76
2021/09/18 00:19:08;;;;;;;56.42;31.83;;;;;;;14.51;98.11;101790.66;5022369;28;20049;-76
2021/09/18 00:21:35;;;;;;;64.57;35.70;;;;;;;14.44;98.33;101796.75;5029321;28;20026;-77
2021/09/18 00:24:15;;;;;;;63.33;34.95;;;;;;;14.38;98.35;101800.19;5026005;28;20101;-76
2021/09/18 00:26:41;;;;;;;59.92;33.58;;;;;;;14.32;98.37;101793.03;5029224;28;20476;-76
2021/09/18 00:29:06;;;;;;;60.10;33.58;;;;;;;14.27;98.59;101797.38;5031048;28;20072;-77
2021/09/18 00:31:51;;;;;;;71.07;35.03;;;;;;;14.24;98.73;101801.72;5037026;28;20029;-77
2021/09/18 00:34:17;;;;;;;66.10;35.05;;;;;;;14.17;98.95;101795.41;5030515;28;20036;-77
2021/09/18 00:36:42;;;;;;;65.80;35.70;;;;;;;14.17;98.91;101795.41;5032411;28;20029;-77
2021/09/18 00:39:07;;;;;;;58.55;32.90;;;;;;;14.13;99.04;101791.84;5029893;28;20041;-77
2021/09/18 00:41:33;;;;;;;65.63;35.58;;;;;;;14.06;98.77;101789.94;5033357;28;20514;-77
2021/09/18 00:44:19;;;;;;;67.28;36.13;;;;;;;13.99;99.13;101796.88;5027913;28;20075;-77
2021/09/18 00:46:46;;;;;;;67.65;35.10;;;;;;;13.95;99.27;101795.03;5033997;28;20029;-77
2021/09/18 00:49:11;;;;;;;68.32;35.55;;;;;;;13.91;99.33;101794.97;5032508;28;20451;-78
2021/09/18 00:51:37;;;;;;;66.10;37.15;;;;;;;13.88;99.35;101794.94;5020180;28;20046;-77
2021/09/18 00:54:04;;;;;;;75.15;38.40;;;;;;;13.87;99.61;101793.13;5027891;28;20052;-77
2021/09/18 00:56:30;;;;;;;78.05;39.33;;;;;;;13.83;99.88;101793.06;5033451;28;20403;-75
2021/09/18 00:58:55;;;;;;;68.78;36.67;;;;;;;13.80;99.77;101795.66;5030403;28;20113;-78
2021/09/18 01:01:21;;;;;;;74.03;37.70;;;;;;;13.78;99.88;101802.69;5026927;28;20028;-77
2021/09/18 01:04:06;;;;;;;69.93;37.45;;;;;;;13.73;99.68;101793.75;5034067;28;20380;-78
2021/09/18 01:06:32;;;;;;;76.60;38.72;;;;;;;13.70;99.76;101793.72;5022839;28;20121;-77
2021/09/18 01:08:59;;;;;;;79.80;38.05;;;;;;;13.67;100.00;101788.34;5033364;28;20100;-77
2021/09/18 01:11:25;;;;;;;75.35;39.28;;;;;;;13.63;100.00;101792.72;5033177;28;20083;-76
2021/09/18 01:13:51;;;;;;;80.28;40.08;;;;;;;13.62;100.00;101792.69;5033752;28;20453;-76
2021/09/18 01:16:36;;;;;;;79.20;40.53;;;;;;;13.64;100.00;101796.22;5031484;28;20072;-77
2021/09/18 01:19:02;;;;;;;74.43;38.25;;;;;;;13.66;100.00;101791.88;5032652;28;20040;-77
2021/09/18 01:21:28;;;;;;;78.82;39.85;;;;;;;13.70;100.00;101785.78;5023309;28;20034;-76
2021/09/18 01:23:54;;;;;;;80.03;41.40;;;;;;;13.76;100.00;101793.81;5032835;28;20021;-77
2021/09/18 01:26:29;;;;;;;76.65;40.47;;;;;;;13.78;100.00;101791.19;5032755;28;20049;-76
2021/09/18 01:28:55;;;;;;;86.35;41.83;;;;;;;13.79;100.00;101793.88;5034158;28;20029;-77
2021/09/18 01:31:20;;;;;;;75.55;40.30;;;;;;;13.79;100.00;101785.03;5036290;28;20559;-77
2021/09/18 01:33:48;;;;;;;80.43;40.55;;;;;;;13.78;100.00;101778.88;5029926;28;20033;-78
2021/09/18 01:36:13;;;;;;;77.15;37.92;;;;;;;13.78;100.00;101770.94;5025577;28;20793;-77
2021/09/18 01:38:39;;;;;;;76.65;40.13;;;;;;;13.76;100.00;101783.22;5044663;28;20060;-77
2021/09/18 01:41:04;;;;;;;74.65;40.28;;;;;;;13.73;100.00;101771.72;5038339;28;20037;-78
2021/09/18 01:43:29;;;;;;;73.70;37.72;;;;;;;13.68;100.00;101770.75;5032105;28;20032;-77
2021/09/18 01:45:55;;;;;;;78.00;38.42;;;;;;;13.63;99.74;101766.25;5029065;28;20534;-77
2021/09/18 01:48:20;;;;;;;65.35;36.40;;;;;;;13.59;99.82;101777.66;5026069;28;20029;-75
2021/09/18 01:50:52;;;;;;;81.95;38.35;;;;;;;13.55;99.89;101775.81;5031625;28;20119;-76
2021/09/18 01:53:20;;;;;;;70.55;36.90;;;;;;;13.49;99.96;101773.91;5032289;28;20090;-76
2021/09/18 01:55:49;;;;;;;77.60;37.33;;;;;;;13.44;99.92;101772.03;5023482;28;20078;-77
2021/09/18 01:58:15;;;;;;;78.28;36.45;;;;;;;13.42;100.00;101781.72;5024489;28;20060;-77
2021/09/18 02:00:43;;;;;;;74.38;37.33;;;;;;;13.38;100.00;101778.09;5023364;28;20048;-77
2021/09/18 02:03:09;;;;;;;76.57;36.70;;;;;;;13.37;100.00;101784.25;5018015;28;20030;-78
2021/09/18 02:05:34;;;;;;;76.45;39.03;;;;;;;13.33;100.00;101787.66;5031045;28;20383;-77
2021/09/18 02:08:00;;;;;;;72.05;35.10;;;;;;;13.30;100.00;101783.19;5025002;28;20041;-77
2021/09/18 02:10:28;;;;;;;79.30;37.10;;;;;;;13.26;100.00;101785.75;5026749;28;20394;-77
2021/09/18 02:12:55;;;;;;;79.30;37.75;;;;;;;13.20;100.00;101775.94;5022786;28;20475;-75
2021/09/18 02:15:26;;;;;;;70.68;35.45;;;;;;;13.21;99.60;101776.81;5023591;28;20503;-76
2021/09/18 02:18:12;;;;;;;79.97;37.38;;;;;;;13.23;100.00;101775.13;5020737;28;20178;-76
2021/09/18 02:20:58;;;;;;;84.20;40.85;;;;;;;13.21;100.00;101772.47;5021647;28;20026;-77
2021/09/18 02:23:23;;;;;;;81.10;39.83;;;;;;;13.19;100.00;101773.28;5022731;28;20506;-76
2021/09/18 02:25:49;;;;;;;89.68;41.60;;;;;;;13.13;100.00;101777.56;5028595;28;20101;-77
2021/09/18 02:28:14;;;;;;;93.18;41.60;;;;;;;13.13;100.00;101772.28;5023779;28;20075;-77
2021/09/18 02:30:39;;;;;;;98.53;42.85;;;;;;;13.12;100.00;101778.41;5032258;28;20487;-77
2021/09/18 02:33:10;;;;;;;99.03;42.50;;;;;;;13.12;100.00;101773.13;5032089;28;20036;-76
2021/09/18 02:35:35;;;;;;;101.63;43.85;;;;;;;13.12;100.00;101774.91;5011604;28;20030;-77
2021/09/18 02:38:22;;;;;;;99.75;44.35;;;;;;;13.13;100.00;101769.66;5022076;28;20602;-77
2021/09/18 02:40:52;;;;;;;93.22;41.42;;;;;;;13.16;100.00;101759.13;5031313;28;20130;-76
2021/09/18 02:43:18;;;;;;;88.05;40.28;;;;;;;13.20;100.00;101765.38;5025514;28;20026;-76
2021/09/18 02:45:43;;;;;;;103.18;44.20;;;;;;;13.21;100.00;101763.63;5027036;28;20021;-76
2021/09/18 02:48:09;;;;;;;82.85;39.35;;;;;;;13.18;100.00;101760.91;5030397;28;20446;-77
2021/09/18 02:50:34;;;;;;;83.07;40.33;;;;;;;13.13;100.00;101753.78;5031433;28;20105;-78
2021/09/18 02:53:00;;;;;;;87.68;41.85;;;;;;;13.09;100.00;101756.31;5024711;28;20099;-76
2021/09/18 02:55:25;;;;;;;88.75;40.85;;;;;;;13.01;100.00;101758.81;5031219;28;20069;-77
2021/09/18 02:57:50;;;;;;;84.15;39.67;;;;;;;12.95;100.00;101756.03;5027384;28;20021;-76
2021/09/18 03:00:16;;;;;;;85.05;38.70;;;;;;;12.92;100.00;101753.34;5027139;28;20030;-77
2021/09/18 03:03:02;;;;;;;91.13;39.67;;;;;;;12.87;100.00;101752.34;5028998;28;20033;-75
2021/09/18 03:05:27;;;;;;;96.40;41.45;;;;;;;12.84;100.00;101744.34;5029820;28;20054;-76
2021/09/18 03:07:52;;;;;;;85.53;39.28;;;;;;;12.85;100.00;101749.66;5028759;28;20428;-76
2021/09/18 03:10:18;;;;;;;97.80;42.10;;;;;;;12.95;100.00;101753.38;5028640;28;20021;-77
2021/09/18 03:12:43;;;;;;;97.93;42.85;;;;;;;13.00;100.00;101746.47;5025616;28;20605;-78
2021/09/18 03:15:10;;;;;;;99.75;41.95;;;;;;;13.01;100.00;101756.19;5015300;28;20056;-77
2021/09/18 03:17:35;;;;;;;98.88;42.42;;;;;;;12.98;100.00;101756.09;5022581;28;20022;-77
2021/09/18 03:20:01;;;;;;;106.63;42.65;;;;;;;12.95;100.00;101758.69;5001781;28;20506;-76
2021/09/18 03:22:26;;;;;;;107.38;42.20;;;;;;;12.92;100.00;101753.34;5025069;28;20165;-77
2021/09/18 03:24:52;;;;;;;102.38;42.17;;;;;;;12.89;100.00;101758.56;5029868;28;20017;-76
2021/09/18 03:27:17;;;;;;;95.07;40.97;;;;;;;12.84;100.00;101754.91;5025553;28;20029;-75
2021/09/18 03:29:43;;;;;;;107.75;42.67;;;;;;;12.80;100.00;101749.59;5028241;28;20025;-76
2021/09/18 03:32:29;;;;;;;100.30;42.08;;;;;;;12.79;100.00;101755.72;5026620;28;20130;-77
2021/09/18 03:34:54;;;;;;;102.78;40.00;;;;;;;12.81;100.00;101743.41;5025686;28;20037;-76
2021/09/18 03:37:20;;;;;;;125.85;48.75;;;;;;;12.82;100.00;101752.25;5021673;28;20022;-76
2021/09/18 03:39:45;;;;;;;110.93;42.97;;;;;;;12.81;100.00;101751.34;5028885;28;20431;-77
2021/09/18 03:42:30;;;;;;;116.47;46.20;;;;;;;12.80;100.00;101757.50;5029288;28;20450;-76
2021/09/18 03:44:56;;;;;;;113.40;42.95;;;;;;;12.78;100.00;101751.28;5025379;28;20032;-76
2021/09/18 03:47:21;;;;;;;130.70;48.50;;;;;;;12.80;100.00;101760.16;5030993;28;20116;-76
2021/09/18 03:49:47;;;;;;;95.80;41.28;;;;;;;12.87;100.00;101761.13;5024092;28;20029;-76
2021/09/18 03:52:12;;;;;;;123.70;45.03;;;;;;;12.88;100.00;101756.78;5031684;28;20044;-77
2021/09/18 03:54:38;;;;;;;108.55;44.47;;;;;;;12.89;100.00;101758.56;5017822;28;20021;-76
2021/09/18 03:57:03;;;;;;;116.43;45.92;;;;;;;12.88;100.00;101762.94;5029512;28;20024;-79
2021/09/18 03:59:28;;;;;;;122.68;45.40;;;;;;;12.88;100.00;101756.78;5029414;28;20395;-76
2021/09/18 04:01:54;;;;;;;141.80;49.90;;;;;;;12.87;100.00;101757.63;5029830;28;20030;-76
2021/09/18 04:04:19;;;;;;;135.32;49.80;;;;;;;12.86;100.00;101763.75;5028800;28;20103;-78
2021/09/18 04:06:46;;;;;;;125.22;47.38;;;;;;;12.84;100.00;101768.13;5031291;28;20061;-76
2021/09/18 04:09:12;;;;;;;145.55;52.88;;;;;;;12.84;100.00;101768.13;5028582;28;20030;-77
2021/09/18 04:11:37;;;;;;;140.10;52.78;;;;;;;12.84;100.00;101765.47;5030276;28;20021;-76
2021/09/18 04:14:03;;;;;;;141.65;52.03;;;;;;;12.86;100.00;101774.31;5030935;28;20116;-75
2021/09/18 04:16:28;;;;;;;132.90;48.90;;;;;;;12.85;100.00;101762.00;5029733;28;20045;-77
2021/09/18 04:18:53;;;;;;;142.20;52.45;;;;;;;12.86;100.00;101771.69;5024445;28;20020;-77
2021/09/18 04:21:19;;;;;;;141.85;49.95;;;;;;;12.84;100.00;101769.00;5021152;28;20055;-77
2021/09/18 04:23:44;;;;;;;143.32;50.38;;;;;;;12.85;100.00;101769.91;5027064;28;20049;-76
2021/09/18 04:26:30;;;;;;;143.90;52.45;;;;;;;12.86;100.00;101774.31;5024634;28;20025;-77
2021/09/18 04:28:56;;;;;;;142.00;52.08;;;;;;;12.87;100.00;101778.75;5025543;28;20065;-75
2021/09/18 04:31:21;;;;;;;149.57;51.42;;;;;;;12.86;100.00;101774.31;5022792;28;20053;-75
2021/09/18 04:33:46;;;;;;;138.85;53.00;;;;;;;12.86;100.00;101769.03;5028286;28;20026;-78
2021/09/18 04:36:12;;;;;;;131.18;48.67;;;;;;;12.86;100.00;101764.66;5023588;28;20091;-76
2021/09/18 04:38:37;;;;;;;136.50;50.92;;;;;;;12.88;100.00;101767.34;5032256;28;20028;-79
2021/09/18 04:41:18;;;;;;;157.90;55.03;;;;;;;12.91;100.00;101770.03;5030486;28;20566;-77
2021/09/18 04:43:44;;;;;;;151.32;53.47;;;;;;;12.94;100.00;101778.03;5034789;28;20115;-77
2021/09/18 04:46:09;;;;;;;152.55;54.53;;;;;;;12.96;100.00;101782.47;5034276;28;20164;-78
2021/09/18 04:48:35;;;;;;;148.90;54.10;;;;;;;12.98;100.00;101774.59;5034067;28;20025;-78
2021/09/18 04:51:00;;;;;;;147.07;55.10;;;;;;;13.01;100.00;101779.97;5021755;28;20026;-76
2021/09/18 04:53:26;;;;;;;149.52;52.65;;;;;;;13.01;100.00;101785.25;5032950;28;20025;-78
2021/09/18 04:55:53;;;;;;;149.40;55.58;;;;;;;13.03;100.00;101782.63;5019866;28;20022;-76
2021/09/18 04:58:18;;;;;;;156.82;54.13;;;;;;;13.06;100.00;101785.31;5023267;28;20029;-78
2021/09/18 05:01:04;;;;;;;155.32;53.90;;;;;;;13.07;100.00;101782.72;5025088;28;20026;-77
2021/09/18 05:03:29;;;;;;;144.00;53.15;;;;;;;13.09;100.00;101791.59;5026609;28;20030;-78
2021/09/18 05:05:54;;;;;;;150.90;53.30;;;;;;;13.11;100.00;101792.50;5024159;28;20025;-76
2021/09/18 05:08:40;;;;;;;142.68;54.03;;;;;;;13.14;100.00;101792.56;5030075;28;20446;-77
2021/09/18 05:11:25;;;;;;;161.77;54.58;;;;;;;13.19;100.00;101795.31;5031081;28;20033;-75
2021/09/18 05:13:51;;;;;;;148.27;54.25;;;;;;;13.23;100.00;101796.28;5040921;28;20029;-78
2021/09/18 05:16:16;;;;;;;159.30;54.83;;;;;;;13.25;100.00;101799.81;5028563;28;20046;-76
2021/09/18 05:18:41;;;;;;;145.13;54.10;;;;;;;13.27;100.00;101803.41;5025415;28;20044;-76
2021/09/18 05:21:07;;;;;;;137.18;53.90;;;;;;;13.26;100.00;101798.97;5028335;28;20025;-78
2021/09/18 05:23:32;;;;;;;138.93;52.80;;;;;;;13.28;100.00;101799.88;5021247;28;20029;-76
2021/09/18 05:25:57;;;;;;;128.65;50.08;;;;;;;13.37;100.00;101805.38;5023069;28;20067;-78
2021/09/18 05:28:23;;;;;;;118.35;47.45;;;;;;;13.44;100.00;101811.69;5033907;28;20449;-76
2021/09/18 05:30:48;;;;;;;139.35;54.72;;;;;;;13.48;100.00;101806.53;5034838;28;20180;-76
2021/09/18 05:33:14;;;;;;;128.38;52.45;;;;;;;13.57;100.00;101813.72;5043117;28;20018;-77
2021/09/18 05:35:39;;;;;;;138.75;54.85;;;;;;;13.61;100.00;101809.41;5023069;28;20524;-76
2021/09/18 05:38:05;;;;;;;137.43;54.90;;;;;;;13.64;100.00;101818.28;5032608;28;20099;-77
2021/09/18 05:40:50;;;;;;;132.80;53.75;;;;;;;13.73;100.00;101816.69;5032594;28;20021;-76
2021/09/18 05:43:15;;;;;;;86.28;41.50;;;;;;;13.73;100.00;101817.56;5025539;28;20475;-75
2021/09/18 05:45:41;;;;;;;83.25;39.90;;;;;;;13.69;100.00;101818.38;5022306;28;20108;-76
2021/09/18 05:48:06;;;;;;;77.85;37.67;;;;;;;13.65;100.00;101816.53;5031455;28;20495;-76
2021/09/18 05:50:33;;;;;;;83.07;38.58;;;;;;;13.64;100.00;101822.69;5032407;28;20490;-75
2021/09/18 05:52:59;;;;;;;78.85;38.65;;;;;;;13.66;100.00;101820.97;5031803;28;20033;-78
2021/09/18 05:55:24;;;;;;;84.22;40.47;;;;;;;13.67;100.00;101822.72;5030011;28;20034;-75
2021/09/18 05:57:50;;;;;;;84.05;40.55;;;;;;;13.66;100.00;101828.91;5015844;28;20075;-76
2021/09/18 06:00:22;;;;;;;84.93;40.78;;;;;;;13.66;100.00;101827.13;5016498;28;20018;-76
2021/09/18 06:02:48;;;;;;;75.30;37.63;;;;;;;13.68;100.00;101832.47;5030001;28;20052;-76
2021/09/18 06:05:13;;;;;;;85.82;40.72;;;;;;;13.70;100.00;101836.03;5033334;28;20014;-77
2021/09/18 06:07:39;;;;;;;90.07;42.13;;;;;;;13.76;100.00;101825.56;5029373;28;20084;-75
2021/09/18 06:10:11;;;;;;;85.07;40.75;;;;;;;13.84;100.00;101833.66;5021868;28;20030;-76
2021/09/18 06:12:40;;;;;;;86.40;40.25;;;;;;;13.92;100.00;101831.16;5029894;28;20029;-76
2021/09/18 06:15:26;;;;;;;78.15;39.72;;;;;;;13.97;100.00;101832.09;5032509;28;20037;-77
2021/09/18 06:17:51;;;;;;;83.65;41.70;;;;;;;14.02;100.00;101832.22;5033270;28;20021;-77
2021/09/18 06:20:17;;;;;;;75.57;40.42;;;;;;;14.04;100.00;101828.72;5031992;28;20022;-79
2021/09/18 06:22:42;;;;;;;79.28;39.92;;;;;;;14.08;100.00;101830.56;5019926;28;20104;-77
2021/09/18 06:25:28;;;;;;;80.15;39.65;;;;;;;14.18;100.00;101836.03;5032513;28;20018;-79
2021/09/18 06:27:55;;;;;;;74.28;40.15;;;;;;;14.23;100.00;101832.59;5030155;28;20482;-77
2021/09/18 06:30:21;;;;;;;78.15;40.03;;;;;;;14.31;100.00;101836.25;5031774;28;20064;-78
2021/09/18 06:32:46;;;;;;;67.15;36.53;;;;;;;14.36;100.00;101844.28;5029790;28;20022;-77
2021/09/18 06:35:12;;;;;;;67.47;38.28;;;;;;;14.43;100.00;101840.88;5033072;28;20112;-77
2021/09/18 06:37:43;;;;;;;79.00;37.58;;;;;;;14.46;99.92;101835.63;5029765;28;20030;-80
2021/09/18 06:40:29;;;;;;;71.18;36.50;;;;;;;14.48;99.45;101844.47;5029105;28;20014;-79
2021/09/18 06:42:54;;;;;;;69.10;38.08;;;;;;;14.59;99.59;101838.47;5027585;28;20529;-80
2021/09/18 06:45:20;;;;;;;69.18;36.50;;;;;;;14.71;100.00;101846.66;5032412;28;20026;-77
2021/09/18 06:48:26;;;;;;;70.20;38.35;;;;;;;14.75;99.59;101837.88;5031786;28;20030;-81
2021/09/18 06:50:51;;;;;;;69.50;36.15;;;;;;;14.90;100.00;101847.81;5014937;28;20026;-79
2021/09/18 06:53:17;;;;;;;70.53;36.83;;;;;;;14.98;98.95;101845.28;5029343;28;20036;-77
2021/09/18 06:55:42;;;;;;;66.80;36.38;;;;;;;15.06;98.61;101848.06;5018492;28;20570;-80
2021/09/18 06:58:08;;;;;;;67.43;36.88;;;;;;;15.13;98.03;101850.78;5029861;28;20026;-81
2021/09/18 07:00:34;;;;;;;63.58;35.85;;;;;;;15.27;98.41;101847.44;5030999;28;20021;-80
2021/09/18 07:02:59;;;;;;;73.68;38.60;;;;;;;15.31;97.43;101850.16;5039018;28;20037;-80
2021/09/18 07:05:25;;;;;;;62.15;36.13;;;;;;;15.41;97.47;101844.97;5027157;28;20033;-81
2021/09/18 07:07:50;;;;;;;73.07;36.72;;;;;;;15.48;97.32;101844.19;5029178;28;20317;-77
2021/09/18 07:10:16;;;;;;;65.22;35.80;;;;;;;15.45;96.16;101842.38;5028960;28;20014;-78
2021/09/18 07:12:42;;;;;;;70.90;37.67;;;;;;;15.54;96.88;101846.91;5029839;28;20112;-78
2021/09/18 07:15:08;;;;;;;68.30;36.00;;;;;;;15.60;96.65;101846.97;5029922;28;20088;-79
2021/09/18 07:17:34;;;;;;;61.83;34.92;;;;;;;15.67;96.29;101843.53;5027870;28;20475;-78
2021/09/18 07:20:01;;;;;;;61.58;34.28;;;;;;;15.75;96.10;101843.63;5027177;28;20037;-77
2021/09/18 07:22:28;;;;;;;67.22;37.47;;;;;;;15.83;97.03;101852.59;5028096;28;20036;-76
2021/09/18 07:24:54;;;;;;;67.80;37.00;;;;;;;15.88;96.67;101854.41;5027873;28;20120;-76
2021/09/18 07:27:20;;;;;;;66.85;34.90;;;;;;;15.90;96.24;101853.53;5030943;28;20434;-76
2021/09/18 07:29:56;;;;;;;67.47;36.72;;;;;;;15.94;95.82;101857.09;5028377;28;20033;-76
2021/09/18 07:32:41;;;;;;;66.15;38.28;;;;;;;16.01;95.53;101856.31;5029970;28;20034;-76
2021/09/18 07:35:26;;;;;;;66.05;38.08;;;;;;;16.09;96.06;101849.31;5031164;28;20104;-77
2021/09/18 07:37:52;;;;;;;68.68;36.83;;;;;;;16.15;95.59;101857.31;5022970;28;20045;-77
2021/09/18 07:40:17;;;;;;;72.45;37.47;;;;;;;16.23;94.44;101846.78;5031107;28;20022;-76
2021/09/18 07:42:43;;;;;;;65.97;36.58;;;;;;;16.33;94.54;101853.06;5019509;28;20159;-76
2021/09/18 07:45:28;;;;;;;69.03;38.47;;;;;;;16.38;93.83;101854.00;5025426;28;20422;-76
2021/09/18 07:47:54;;;;;;;58.22;35.80;;;;;;;16.52;93.42;101860.31;5021003;28;20037;-76
2021/09/18 07:50:24;;;;;;;57.33;35.40;;;;;;;16.66;93.23;101859.56;5026640;28;20025;-76
2021/09/18 07:53:11;;;;;;;62.42;34.70;;;;;;;16.77;92.12;101862.28;5022596;28;20037;-77
2021/09/18 07:55:56;;;;;;;60.08;35.65;;;;;;;16.83;91.47;101863.22;5024405;28;20040;-78
2021/09/18 07:58:22;;;;;;;58.45;34.65;;;;;;;16.99;91.76;101864.22;5015259;28;20431;-76
2021/09/18 08:00:47;;;;;;;55.80;34.28;;;;;;;17.17;90.51;101855.50;5028100;28;20029;-77
2021/09/18 08:03:14;;;;;;;57.13;34.63;;;;;;;17.30;89.79;101848.44;5032742;28;20028;-76
2021/09/18 08:05:40;;;;;;;62.92;36.40;;;;;;;17.48;90.37;101852.94;5032835;28;20061;-77
2021/09/18 08:08:25;;;;;;;58.80;32.92;;;;;;;17.65;87.55;101855.69;5037713;28;20037;-77
2021/09/18 08:10:51;;;;;;;48.53;31.60;;;;;;;17.91;86.02;101859.31;5028882;28;20037;-77
2021/09/18 08:13:16;;;;;;;49.65;31.55;;;;;;;18.14;85.81;101857.59;5034760;28;20029;-76
2021/09/18 08:15:42;;;;;;;50.80;29.05;;;;;;;18.40;84.42;101856.75;5034454;28;20403;-75
2021/09/18 08:18:28;;;;;;;47.58;26.40;;;;;;;18.73;82.64;101857.59;5034040;28;20049;-78
2021/09/18 08:21:13;;;;;;;41.20;26.55;;;;;;;18.95;79.66;101850.50;5020273;28;20133;-78
2021/09/18 08:24:01;;;;;;;38.67;25.33;;;;;;;19.10;79.23;101854.94;5046673;28;20025;-76
2021/09/18 08:26:30;;;;;;;41.13;27.08;;;;;;;19.24;80.52;101851.34;5047990;28;20079;-76
2021/09/18 08:29:18;;;;;;;40.40;26.67;;;;;;;19.40;77.53;101845.03;5034062;28;20456;-76
2021/09/18 08:31:43;;;;;;;38.85;24.65;;;;;;;19.65;77.09;101851.13;5040809;28;20034;-76
2021/09/18 08:34:18;;;;;;;43.58;25.65;;;;;;;19.87;75.91;101849.28;5034241;28;20463;-77
2021/09/18 08:36:43;;;;;;;40.90;27.42;;;;;;;19.86;76.20;101841.28;5031207;28;20030;-78
2021/09/18 08:39:09;;;;;;;41.53;28.52;;;;;;;19.94;74.36;101839.44;5034521;28;20136;-76
2021/09/18 08:41:34;;;;;;;43.35;26.20;;;;;;;19.91;74.02;101838.56;5034104;28;20021;-78
2021/09/18 08:44:00;;;;;;;40.15;25.92;;;;;;;19.95;75.91;101856.34;5034643;28;20056;-77
2021/09/18 08:46:25;;;;;;;35.22;22.33;;;;;;;20.01;73.52;101845.66;5018731;28;20484;-76
2021/09/18 08:48:53;;;;;;;37.30;23.83;;;;;;;20.04;73.15;101840.28;5032132;28;20026;-77
2021/09/18 08:51:18;;;;;;;38.95;24.10;;;;;;;20.10;73.89;101850.03;5017103;28;20030;-76
2021/09/18 08:53:44;;;;;;;35.42;24.90;;;;;;;20.17;74.31;101851.75;5033647;28;20435;-76
2021/09/18 08:56:09;;;;;;;39.90;24.05;;;;;;;20.09;72.93;101849.16;5019484;28;20076;-77
2021/09/18 08:58:34;;;;;;;37.60;24.58;;;;;;;20.17;74.25;101857.09;5033843;28;20041;-76
2021/09/18 09:01:01;;;;;;;36.08;25.17;;;;;;;20.37;72.03;101846.25;5032595;28;20029;-76
2021/09/18 09:03:35;;;;;;;36.28;23.25;;;;;;;20.43;72.45;101851.56;5033536;28;20036;-77
2021/09/18 09:06:08;;;;;;;35.47;24.20;;;;;;;20.71;72.24;101849.56;5020152;28;20034;-77
2021/09/18 09:09:13;;;;;;;33.17;22.17;;;;;;;21.05;70.46;101845.63;5034468;28;20041;-77
2021/09/18 09:11:50;;;;;;;36.08;23.23;;;;;;;21.28;68.75;101839.13;5020350;28;20511;-77
2021/09/18 09:14:36;;;;;;;34.13;22.58;;;;;;;21.53;67.45;101834.41;5033611;28;20568;-77
2021/09/18 09:17:05;;;;;;;35.05;23.63;;;;;;;21.73;65.76;101828.72;5022148;28;20030;-76
2021/09/18 09:19:40;;;;;;;35.33;22.83;;;;;;;21.87;65.09;101829.44;5032221;28;20033;-77
2021/09/18 09:22:06;;;;;;;33.33;20.65;;;;;;;22.08;64.32;101823.78;5033786;28;20034;-76
2021/09/18 09:24:32;;;;;;;29.00;20.38;;;;;;;22.25;63.94;101829.75;5030380;28;20068;-76
2021/09/18 09:27:06;;;;;;;26.63;19.02;;;;;;;22.28;63.46;101826.13;5024831;28;20420;-76
2021/09/18 09:29:52;;;;;;;26.80;17.85;;;;;;;22.54;61.40;101828.38;5034392;28;20087;-77
2021/09/18 09:32:37;;;;;;;26.85;19.25;;;;;;;22.63;61.80;101822.88;5026860;28;20076;-76
2021/09/18 09:35:09;;;;;;;29.13;19.88;;;;;;;23.01;61.05;101831.13;5041635;28;20115;-77
2021/09/18 09:37:34;;;;;;;26.05;17.48;;;;;;;23.23;58.43;101820.84;5042259;28;20032;-78
2021/09/18 09:40:04;;;;;;;30.05;18.95;;;;;;;23.42;57.68;101824.03;5034277;28;20025;-77
2021/09/18 09:42:32;;;;;;;26.63;19.00;;;;;;;23.85;57.79;101828.44;5025976;28;20446;-76
2021/09/18 09:45:15;;;;;;;24.00;18.17;;;;;;;24.32;55.78;101832.72;5024409;28;20033;-78
2021/09/18 09:47:41;;;;;;;26.95;18.77;;;;;;;24.53;55.59;101824.09;5026091;28;20045;-77
2021/09/18 09:50:08;;;;;;;25.13;18.40;;;;;;;25.11;53.24;101818.09;5033549;28;20025;-78
2021/09/18 09:52:45;;;;;;;26.25;18.10;;;;;;;25.55;49.85;101815.88;5029109;28;20053;-77
2021/09/18 09:55:35;;;;;;;20.17;15.73;;;;;;;25.89;49.91;101811.25;5024939;28;20038;-75
2021/09/18 09:58:06;;;;;;;21.55;16.42;;;;;;;26.09;51.37;101826.81;5032660;28;20529;-77
2021/09/18 10:00:42;;;;;;;25.27;16.35;;;;;;;26.74;47.50;101820.13;5030974;28;20033;-76
2021/09/18 10:03:27;;;;;;;25.52;18.15;;;;;;;26.47;47.72;101816.53;5032795;28;20026;-76
2021/09/18 10:06:09;;;;;;;25.52;19.33;;;;;;;26.23;50.25;101823.66;5031162;28;20025;-76
2021/09/18 10:08:35;;;;;;;28.55;16.85;;;;;;;25.95;51.50;101832.63;5027936;28;20068;-78
2021/09/18 10:11:04;;;;;;;28.90;18.88;;;;;;;25.58;52.21;101836.47;5028125;28;20052;-78
2021/09/18 10:13:30;;;;;;;29.10;19.58;;;;;;;25.02;51.83;101823.72;5031634;28;20056;-79
2021/09/18 10:15:56;;;;;;;23.50;17.77;;;;;;;24.98;51.58;101830.13;5031794;28;20041;-78
2021/09/18 10:18:42;;;;;;;23.65;17.45;;;;;;;24.86;52.45;101831.34;5032891;28;20030;-78
2021/09/18 10:23:51;;;;;;;21.00;16.30;;;;;;;25.52;52.24;101825.91;5026898;28;20506;-78
2021/09/18 10:26:17;;;;;;;19.38;15.13;;;;;;;25.71;47.00;101804.66;5031004;28;20025;-75
2021/09/18 10:29:07;;;;;;;33.10;15.70;;;;;;;25.86;47.33;101804.13;5030023;28;20383;-76
2021/09/18 10:31:32;;;;;;;16.23;12.93;;;;;;;27.03;45.06;101811.88;5030045;28;20048;-76
2021/09/18 10:33:57;;;;;;;16.83;11.98;;;;;;;27.22;43.73;101804.84;5030715;28;20021;-77
2021/09/18 10:36:29;;;;;;;18.42;13.25;;;;;;;27.68;42.69;101804.03;5030392;28;20394;-78
2021/09/18 10:39:10;;;;;;;12.93;9.15;;;;;;;27.58;40.73;101795.41;5028909;28;20029;-78
2021/09/18 10:42:00;;;;;;;22.52;10.88;;;;;;;28.07;40.80;101789.84;5028318;28;20349;-75
2021/09/18 10:44:46;;;;;;;17.40;9.55;;;;;;;28.71;39.30;101785.31;5027557;28;20519;-78
2021/09/18 10:47:35;;;;;;;10.10;8.30;;;;;;;29.54;37.83;101788.72;5031880;28;20026;-75
2021/09/18 10:50:01;;;;;;;15.98;11.20;;;;;;;29.78;38.00;101792.06;5026992;28;20029;-79
2021/09/18 10:52:33;;;;;;;16.80;8.73;;;;;;;30.49;35.20;101782.22;5030362;28;20030;-78
2021/09/18 10:55:01;;;;;;;10.95;8.73;;;;;;;30.77;36.11;101781.63;5028362;28;20554;-77
2021/09/18 10:57:51;;;;;;;10.52;7.10;;;;;;;30.85;34.10;101771.22;5024246;28;20029;-76
2021/09/18 11:00:19;;;;;;;16.77;8.45;;;;;;;30.84;35.70;101777.59;5016966;28;20487;-78
2021/09/18 11:02:48;;;;;;;12.52;8.88;;;;;;;31.17;33.06;101768.56;5028602;28;20051;-78
2021/09/18 11:05:26;;;;;;;12.75;8.32;;;;;;;31.17;32.99;101768.56;5029872;28;20018;-80
2021/09/18 11:08:01;;;;;;;12.77;9.25;;;;;;;30.67;33.74;101769.47;5028533;28;20021;-78
2021/09/18 11:10:27;;;;;;;13.52;7.20;;;;;;;30.39;33.96;101766.34;5028470;28;20034;-80
2021/09/18 11:13:07;;;;;;;13.90;9.18;;;;;;;29.83;37.60;101770.09;5028638;28;20383;-76
2021/09/18 11:15:47;;;;;;;13.35;8.05;;;;;;;30.05;39.11;101783.53;5030310;28;20099;-77
2021/09/18 11:18:29;;;;;;;10.13;8.00;;;;;;;29.44;37.58;101772.88;5029998;28;20037;-77
2021/09/18 11:21:09;;;;;;;7.47;6.03;;;;;;;29.96;33.69;101765.84;5028755;28;20025;-77